Time;durP1;ratioP1;P1;durP2;ratioP2;P2;SDS_P1;SDS_P2;PMS_P1;PMS_P2;Temp;Humidity;BMP_temperature;BMP_pressure;BME280_temperature;BME280_humidity;BME280_pressure;Samples;Min_cycle;Max_cycle;Signal;HPM_P1;HPM_P2
2023/09/09 00:02:12;;;;;;;61.38;29.85;;;;;;;21.10;79.15;101694.59;5057034;27;97367;-28
2023/09/09 00:04:37;;;;;;;56.50;27.33;;;;;;;21.09;78.35;101703.84;5038000;27;100861;-27
2023/09/09 00:07:03;;;;;;;56.20;27.48;;;;;;;21.05;79.00;101702.41;5056564;27;96649;-27
2023/09/09 00:09:32;;;;;;;50.15;25.48;;;;;;;20.99;78.98;101692.81;5056890;27;96811;-27
2023/09/09 00:11:57;;;;;;;53.97;27.23;;;;;;;20.96;79.13;101693.09;5038059;27;100891;-27
2023/09/09 00:14:24;;;;;;;51.22;26.45;;;;;;;20.95;79.05;101694.09;5056636;27;97808;-27
2023/09/09 00:16:49;;;;;;;57.30;28.35;;;;;;;20.95;79.23;101696.84;5056750;27;96478;-27
2023/09/09 00:19:14;;;;;;;57.40;28.73;;;;;;;20.88;79.08;101692.91;5056417;27;96873;-27
2023/09/09 00:21:40;;;;;;;57.83;28.20;;;;;;;20.88;79.11;101704.84;5056294;27;99828;-27
2023/09/09 00:24:05;;;;;;;61.00;27.42;;;;;;;20.82;78.82;101688.88;5056603;27;97810;-29
2023/09/09 00:26:31;;;;;;;63.15;29.20;;;;;;;20.75;79.46;101691.31;5056427;27;96586;-27
2023/09/09 00:28:57;;;;;;;62.70;30.40;;;;;;;20.78;79.48;101699.31;5056718;27;96783;-28
2023/09/09 00:31:23;;;;;;;58.60;28.98;;;;;;;20.76;80.25;101701.31;5037484;27;101466;-27
2023/09/09 00:33:49;;;;;;;65.15;30.00;;;;;;;20.72;79.92;101698.97;5055853;27;97769;-27
2023/09/09 00:36:14;;;;;;;55.88;26.92;;;;;;;20.68;79.16;101695.63;5056631;27;96815;-27
2023/09/09 00:38:40;;;;;;;50.33;25.33;;;;;;;20.63;79.36;101695.19;5056659;27;96744;-28
2023/09/09 00:41:10;;;;;;;57.83;26.63;;;;;;;20.64;79.64;101694.19;5055813;27;97838;-27
2023/09/09 00:43:37;;;;;;;58.53;27.53;;;;;;;20.57;79.40;101685.59;5037313;27;100894;-27
2023/09/09 00:46:04;;;;;;;56.08;27.75;;;;;;;20.60;79.45;101687.22;5056347;27;96575;-27
2023/09/09 00:48:29;;;;;;;59.17;28.88;;;;;;;20.54;79.31;101684.97;5038261;27;96910;-27
2023/09/09 00:50:56;;;;;;;59.40;29.10;;;;;;;20.55;79.34;101687.63;5055998;27;97935;-27
2023/09/09 00:53:21;;;;;;;59.33;29.20;;;;;;;20.51;80.12;101682.50;5037525;27;100617;-27
2023/09/09 00:55:47;;;;;;;56.40;28.40;;;;;;;20.47;80.03;101681.88;5055751;27;96514;-27
2023/09/09 00:58:13;;;;;;;61.35;30.65;;;;;;;20.48;80.02;101685.53;5037783;27;97045;-27
2023/09/09 01:00:38;;;;;;;66.50;28.92;;;;;;;20.42;80.12;101675.94;5055673;27;98225;-27
2023/09/09 01:03:05;;;;;;;58.65;27.90;;;;;;;20.44;80.10;101684.06;5055641;27;99832;-27
2023/09/09 01:05:32;;;;;;;58.67;28.63;;;;;;;20.37;80.46;101681.84;5037556;27;96752;-27
2023/09/09 01:07:57;;;;;;;67.35;30.50;;;;;;;20.37;80.15;101683.72;5037872;27;96935;-27
2023/09/09 01:10:23;;;;;;;56.72;30.35;;;;;;;20.29;80.12;101681.69;5055698;27;98039;-27
2023/09/09 01:12:50;;;;;;;61.75;29.85;;;;;;;20.30;80.59;101686.16;5055744;27;99254;-26
2023/09/09 01:15:16;;;;;;;60.08;28.40;;;;;;;20.25;80.97;101690.34;5037242;27;97360;-27
2023/09/09 01:17:42;;;;;;;58.20;28.27;;;;;;;20.18;80.82;101673.50;5037464;27;96827;-27
2023/09/09 01:20:13;;;;;;;58.47;27.27;;;;;;;20.18;80.44;101687.25;5055037;27;97358;-27
2023/09/09 01:22:44;;;;;;;53.13;27.67;;;;;;;20.17;80.77;101687.41;5055578;27;97371;-27
2023/09/09 01:25:11;;;;;;;57.13;26.48;;;;;;;20.09;80.46;101686.22;5037383;27;96899;-27
2023/09/09 01:27:37;;;;;;;57.63;28.88;;;;;;;20.10;80.63;101684.34;5037485;27;96876;-28
2023/09/09 01:30:03;;;;;;;57.63;27.42;;;;;;;20.02;81.60;101686.88;5036808;27;101345;-27
2023/09/09 01:32:29;;;;;;;52.58;26.92;;;;;;;19.99;81.05;101685.25;5036948;27;99067;-27
2023/09/09 01:34:55;;;;;;;59.55;29.05;;;;;;;19.97;80.56;101669.91;5037319;27;96806;-27
2023/09/09 01:37:21;;;;;;;59.08;28.00;;;;;;;19.99;80.97;101685.25;5056048;27;96751;-29
2023/09/09 01:39:46;;;;;;;53.78;27.77;;;;;;;19.98;80.78;101678.03;5055408;27;97622;-27
2023/09/09 01:42:11;;;;;;;60.13;29.25;;;;;;;19.92;81.10;101673.06;5054593;27;97310;-27
2023/09/09 01:44:37;;;;;;;68.13;29.00;;;;;;;19.86;81.35;101673.63;5036586;27;96713;-27
2023/09/09 01:47:03;;;;;;;56.33;28.27;;;;;;;19.84;81.48;101676.50;5055527;27;96757;-29
2023/09/09 01:49:28;;;;;;;62.25;28.65;;;;;;;19.73;81.92;101668.31;5055263;27;97904;-27
2023/09/09 01:51:53;;;;;;;55.88;27.17;;;;;;;19.82;81.29;101681.25;5055146;27;97245;-27
2023/09/09 01:54:18;;;;;;;57.92;27.83;;;;;;;19.82;81.02;101674.88;5055518;27;96704;-27
2023/09/09 01:56:44;;;;;;;55.28;26.17;;;;;;;19.78;81.13;101679.75;5055500;27;96716;-28
2023/09/09 01:59:09;;;;;;;54.15;25.73;;;;;;;19.72;81.54;101677.56;5054827;27;97432;-28
2023/09/09 02:01:34;;;;;;;51.17;24.45;;;;;;;19.71;81.56;101681.31;5054954;27;99705;-27
2023/09/09 02:04:00;;;;;;;52.17;26.20;;;;;;;19.66;81.29;101678.97;5055063;27;96532;-27
2023/09/09 02:06:28;;;;;;;49.92;25.33;;;;;;;19.66;80.87;101686.31;5055000;27;96943;-27
2023/09/09 02:08:54;;;;;;;55.58;24.85;;;;;;;19.60;81.27;101682.22;5035823;27;99665;-27
2023/09/09 02:11:19;;;;;;;45.83;23.17;;;;;;;19.57;81.58;101681.59;5036981;27;97293;-26
2023/09/09 02:13:45;;;;;;;58.47;26.17;;;;;;;19.56;82.01;101679.88;5054675;27;96747;-27
2023/09/09 02:16:10;;;;;;;57.28;26.98;;;;;;;19.52;81.80;101677.41;5055229;27;96787;-27
2023/09/09 02:18:39;;;;;;;56.58;25.85;;;;;;;19.52;82.04;101687.50;5054816;27;97928;-27
2023/09/09 02:21:06;;;;;;;50.70;25.58;;;;;;;19.51;81.78;101689.38;5058081;27;97825;-27
2023/09/09 02:23:31;;;;;;;61.00;26.08;;;;;;;19.51;81.68;101686.63;5040361;27;96728;-27
2023/09/09 02:25:57;;;;;;;53.20;24.80;;;;;;;19.50;81.39;101682.16;5058974;27;96677;-27
2023/09/09 02:28:22;;;;;;;47.78;25.42;;;;;;;19.45;81.72;101667.94;5057943;27;99441;-27
2023/09/09 02:30:48;;;;;;;49.03;25.40;;;;;;;19.46;81.86;101669.66;5058219;27;97373;-28
2023/09/09 02:33:13;;;;;;;54.05;25.55;;;;;;;19.45;81.54;101675.28;5057739;27;96817;-27
2023/09/09 02:35:43;;;;;;;53.95;24.60;;;;;;;19.43;81.67;101667.19;5058286;27;96822;-27
2023/09/09 02:38:08;;;;;;;47.65;24.27;;;;;;;19.41;82.11;101671.09;5039683;27;100827;-27
2023/09/09 02:40:34;;;;;;;55.63;26.20;;;;;;;19.35;81.74;101671.59;5057873;27;96919;-27
2023/09/09 02:42:59;;;;;;;49.60;25.77;;;;;;;19.34;82.53;101661.63;5057237;27;97771;-27
2023/09/09 02:45:25;;;;;;;53.83;25.25;;;;;;;19.31;82.35;101668.25;5058624;27;96677;-27
2023/09/09 02:47:50;;;;;;;51.25;25.05;;;;;;;19.26;82.13;101668.66;5058210;27;96843;-28
2023/09/09 02:50:16;;;;;;;52.55;25.23;;;;;;;19.24;82.63;101665.16;5058363;27;97874;-27
2023/09/09 02:52:41;;;;;;;52.47;24.73;;;;;;;19.17;82.59;101661.19;5058265;27;96539;-27
2023/09/09 02:55:07;;;;;;;49.70;24.02;;;;;;;19.21;82.32;101665.41;5058206;27;96757;-27
2023/09/09 02:57:32;;;;;;;51.75;24.35;;;;;;;19.14;82.31;101660.56;5056890;27;99349;-27
2023/09/09 02:59:57;;;;;;;48.78;25.25;;;;;;;19.14;83.14;101666.03;5057413;27;99767;-29
2023/09/09 03:02:23;;;;;;;51.97;24.00;;;;;;;19.05;82.89;101656.75;5058270;27;97679;-27
2023/09/09 03:04:48;;;;;;;45.88;22.67;;;;;;;19.05;82.72;101662.22;5058062;27;96813;-27
2023/09/09 03:07:14;;;;;;;39.80;19.80;;;;;;;19.04;82.76;101669.59;5057566;27;99272;-26
2023/09/09 03:09:39;;;;;;;41.03;22.10;;;;;;;19.03;83.51;101664.22;5057554;27;97815;-27
2023/09/09 03:12:05;;;;;;;42.42;21.23;;;;;;;18.99;83.22;101657.25;5058316;27;97299;-29
2023/09/09 03:14:31;;;;;;;42.17;20.63;;;;;;;18.98;83.26;101663.75;5039723;27;96782;-27
2023/09/09 03:16:58;;;;;;;39.40;19.55;;;;;;;18.96;83.45;101663.00;5057594;27;97520;-27
2023/09/09 03:19:24;;;;;;;45.33;21.65;;;;;;;18.98;83.48;101661.88;5038864;27;100958;-27
2023/09/09 03:21:49;;;;;;;39.72;19.85;;;;;;;18.99;82.80;101663.59;5057071;27;96607;-27
2023/09/09 03:24:15;;;;;;;41.10;21.70;;;;;;;18.94;83.30;101652.13;5057453;27;96847;-27
2023/09/09 03:26:40;;;;;;;41.17;20.48;;;;;;;18.90;83.73;101656.13;5057218;27;98000;-27
2023/09/09 03:29:05;;;;;;;50.55;22.70;;;;;;;18.87;83.53;101656.41;5057416;27;97804;-27
2023/09/09 03:31:31;;;;;;;40.63;21.17;;;;;;;18.85;83.25;101658.41;5056266;27;96726;-27
2023/09/09 03:33:56;;;;;;;45.08;21.17;;;;;;;18.87;83.53;101659.13;5057631;27;96890;-27
2023/09/09 03:36:21;;;;;;;44.67;21.30;;;;;;;18.82;82.84;101661.41;5056913;27;99601;-28
2023/09/09 03:38:47;;;;;;;44.63;22.27;;;;;;;18.81;83.19;101654.19;5057328;27;99170;-27
2023/09/09 03:41:12;;;;;;;45.58;21.73;;;;;;;18.83;83.34;101664.03;5057202;27;96705;-27
2023/09/09 03:43:38;;;;;;;48.63;22.98;;;;;;;18.79;83.21;101656.19;5056679;27;96888;-27
2023/09/09 03:46:03;;;;;;;47.72;23.73;;;;;;;18.80;83.10;101663.41;5056670;27;98043;-28
2023/09/09 03:48:29;;;;;;;47.90;23.20;;;;;;;18.79;83.65;101662.53;5057085;27;97739;-27
2023/09/09 03:50:59;;;;;;;42.95;22.13;;;;;;;18.78;83.24;101669.03;5057361;27;96481;-27
2023/09/09 03:53:24;;;;;;;42.92;21.77;;;;;;;18.72;83.37;101663.16;5038968;27;96812;-27
2023/09/09 03:55:49;;;;;;;45.13;22.30;;;;;;;18.71;83.13;101662.28;5056851;27;97870;-27
2023/09/09 03:58:15;;;;;;;45.30;22.02;;;;;;;18.70;83.13;101663.25;5056580;27;99506;-27
2023/09/09 04:00:40;;;;;;;39.45;21.52;;;;;;;18.64;83.70;101667.41;5057134;27;96637;-27
2023/09/09 04:03:05;;;;;;;40.33;20.58;;;;;;;18.59;83.46;101674.25;5057663;27;96724;-27
2023/09/09 04:05:31;;;;;;;48.10;21.38;;;;;;;18.57;83.59;101679.88;5056690;27;98003;-27
2023/09/09 04:07:58;;;;;;;40.35;20.80;;;;;;;18.60;83.52;101679.63;5056686;27;97379;-28
2023/09/09 04:10:23;;;;;;;41.17;20.55;;;;;;;18.57;83.53;101677.16;5037723;27;96667;-27
2023/09/09 04:12:49;;;;;;;39.33;20.90;;;;;;;18.53;83.91;101672.03;5056928;27;96779;-28
2023/09/09 04:15:14;;;;;;;40.42;20.52;;;;;;;18.54;83.48;101688.34;5056275;27;99356;-27
2023/09/09 04:17:40;;;;;;;40.35;20.50;;;;;;;18.54;83.90;101679.25;5056629;27;97163;-27
2023/09/09 04:20:08;;;;;;;43.38;21.00;;;;;;;18.55;83.46;101683.75;5056853;27;96752;-27
2023/09/09 04:22:34;;;;;;;39.78;19.80;;;;;;;18.51;83.51;101680.38;5038312;27;96823;-27
2023/09/09 04:24:59;;;;;;;47.65;22.45;;;;;;;18.46;83.95;101688.97;5037619;27;100873;-28
2023/09/09 04:27:25;;;;;;;46.42;22.38;;;;;;;18.40;84.19;101680.38;5056780;27;98233;-27
2023/09/09 04:29:51;;;;;;;43.03;20.98;;;;;;;18.44;83.65;101682.75;5038311;27;96886;-28
2023/09/09 04:32:16;;;;;;;41.47;19.88;;;;;;;18.39;84.03;101684.13;5056623;27;96586;-27
2023/09/09 04:34:41;;;;;;;41.00;20.55;;;;;;;18.43;83.52;101685.63;5055672;27;101725;-26
2023/09/09 04:37:07;;;;;;;46.75;21.73;;;;;;;18.38;83.71;101676.91;5056290;27;97776;-27
2023/09/09 04:39:33;;;;;;;42.00;20.80;;;;;;;18.35;83.94;101682.63;5056306;27;96678;-27
2023/09/09 04:41:58;;;;;;;49.00;22.98;;;;;;;18.33;84.40;101687.34;5055537;27;96512;-27
2023/09/09 04:44:23;;;;;;;47.15;22.35;;;;;;;18.36;84.22;101688.00;5055848;27;97922;-27
2023/09/09 04:46:49;;;;;;;42.85;20.17;;;;;;;18.33;84.32;101688.25;5056181;27;97817;-27
2023/09/09 04:49:17;;;;;;;46.13;22.63;;;;;;;18.34;83.84;101691.84;5056220;27;96659;-27
2023/09/09 04:51:43;;;;;;;47.58;22.10;;;;;;;18.31;84.05;101678.41;5038167;27;96877;-27
2023/09/09 04:54:08;;;;;;;40.80;21.17;;;;;;;18.33;83.79;101695.59;5037218;27;99285;-27
2023/09/09 04:56:33;;;;;;;44.45;21.73;;;;;;;18.27;84.51;101694.22;5055958;27;97292;-27
2023/09/09 04:58:59;;;;;;;37.88;20.38;;;;;;;18.21;84.58;101684.63;5055463;27;96588;-27
2023/09/09 05:01:24;;;;;;;34.35;19.23;;;;;;;18.26;85.11;101695.22;5055836;27;96812;-27
2023/09/09 05:03:49;;;;;;;37.08;19.20;;;;;;;18.21;84.88;101692.84;5055957;27;97391;-28
2023/09/09 05:06:15;;;;;;;41.97;20.33;;;;;;;18.20;84.37;101699.31;5037673;27;97214;-27
2023/09/09 05:08:40;;;;;;;40.13;20.63;;;;;;;18.18;84.74;101697.69;5055587;27;96746;-27
2023/09/09 05:11:05;;;;;;;42.38;19.80;;;;;;;18.16;84.15;101702.44;5056131;27;96729;-26
2023/09/09 05:13:31;;;;;;;39.35;19.33;;;;;;;18.16;84.93;101697.84;5055830;27;97435;-27
2023/09/09 05:15:56;;;;;;;42.10;20.45;;;;;;;18.16;84.48;101697.84;5055985;27;97858;-26
2023/09/09 05:18:21;;;;;;;41.35;19.83;;;;;;;18.20;84.38;101710.28;5055774;27;96575;-27
2023/09/09 05:20:47;;;;;;;36.05;18.77;;;;;;;18.11;84.62;101700.06;5055847;27;96823;-29
2023/09/09 05:23:12;;;;;;;33.13;17.95;;;;;;;18.17;84.59;101704.19;5055079;27;97284;-27
2023/09/09 05:25:37;;;;;;;43.63;20.33;;;;;;;18.19;85.21;101703.06;5055318;27;97799;-30
2023/09/09 05:28:03;;;;;;;37.83;18.63;;;;;;;18.18;84.56;101712.28;5055614;27;96451;-27
2023/09/09 05:30:29;;;;;;;39.65;18.67;;;;;;;18.18;84.65;101701.31;5036093;27;96982;-28
2023/09/09 05:32:54;;;;;;;38.53;19.33;;;;;;;18.16;84.78;101694.19;5053537;27;98517;-28
2023/09/09 05:35:19;;;;;;;36.15;20.65;;;;;;;18.20;84.49;101703.94;5055112;27;97933;-27
2023/09/09 05:37:45;;;;;;;42.53;18.83;;;;;;;18.19;84.34;101708.56;5055155;27;96593;-27
2023/09/09 05:40:11;;;;;;;44.20;20.02;;;;;;;18.19;84.46;101697.59;5037386;27;96798;-27
2023/09/09 05:42:37;;;;;;;41.50;20.05;;;;;;;18.22;84.55;101707.44;5054426;27;100512;-27
2023/09/09 05:45:05;;;;;;;41.90;20.90;;;;;;;18.19;84.80;101697.59;5055327;27;98241;-26
2023/09/09 05:47:31;;;;;;;38.15;19.45;;;;;;;18.28;85.33;101715.16;5036532;27;96566;-27
2023/09/09 05:49:56;;;;;;;36.58;19.50;;;;;;;18.22;85.02;101705.56;5055614;27;96805;-27
2023/09/09 05:52:21;;;;;;;35.97;19.30;;;;;;;18.29;85.17;101707.81;5052759;27;99261;-29
2023/09/09 05:54:47;;;;;;;32.25;18.40;;;;;;;18.33;84.59;101717.53;5051766;27;97225;-34
2023/09/09 05:57:12;;;;;;;41.17;19.00;;;;;;;18.33;84.81;101710.19;5052830;27;96908;-28
2023/09/09 05:59:38;;;;;;;33.80;17.73;;;;;;;18.35;84.56;101701.81;5052628;27;97190;-27
2023/09/09 06:02:04;;;;;;;32.97;18.40;;;;;;;18.42;84.14;101708.56;5052188;27;99516;-31
2023/09/09 06:04:29;;;;;;;38.13;19.20;;;;;;;18.46;84.67;101721.91;5034368;27;100801;-31
2023/09/09 06:06:56;;;;;;;33.55;18.63;;;;;;;18.51;84.28;101716.03;5035736;27;97062;-27
2023/09/09 06:09:21;;;;;;;36.80;18.17;;;;;;;18.54;84.58;101715.78;5036730;27;97027;-27
2023/09/09 06:11:49;;;;;;;36.88;18.85;;;;;;;18.59;84.02;101720.91;5054182;27;99642;-27
2023/09/09 06:14:15;;;;;;;39.88;19.10;;;;;;;18.64;84.07;101724.16;5036507;27;100979;-28
2023/09/09 06:16:40;;;;;;;35.35;18.10;;;;;;;18.67;84.23;101727.53;5055131;27;96501;-28
2023/09/09 06:19:06;;;;;;;36.78;19.33;;;;;;;18.69;84.46;101719.16;5054857;27;96816;-28
2023/09/09 06:21:31;;;;;;;34.47;18.52;;;;;;;18.77;83.71;101724.94;5053659;27;99389;-27
2023/09/09 06:23:56;;;;;;;35.70;16.65;;;;;;;18.84;83.91;101726.16;5054124;27;98956;-27
2023/09/09 06:26:22;;;;;;;37.03;18.55;;;;;;;18.96;83.03;101727.03;5054769;27;96547;-27
2023/09/09 06:28:47;;;;;;;38.25;18.35;;;;;;;19.00;83.68;101722.16;5055444;27;96791;-27
2023/09/09 06:31:13;;;;;;;30.85;17.55;;;;;;;19.09;83.34;101724.09;5054656;27;97831;-27
2023/09/09 06:33:38;;;;;;;30.60;16.75;;;;;;;19.22;82.87;101732.22;5055001;27;97267;-27
2023/09/09 06:36:03;;;;;;;32.13;17.73;;;;;;;19.31;83.07;101736.94;5053959;27;96662;-27
2023/09/09 06:38:29;;;;;;;35.00;19.05;;;;;;;19.43;82.54;101733.16;5055113;27;96770;-27
2023/09/09 06:40:54;;;;;;;33.53;18.52;;;;;;;19.52;82.13;101737.84;5053843;27;99244;-27
2023/09/09 06:43:20;;;;;;;37.25;18.92;;;;;;;19.67;81.76;101745.78;5053821;27;97269;-28
2023/09/09 06:45:46;;;;;;;39.38;20.55;;;;;;;19.83;81.41;101745.34;5036255;27;96578;-27
2023/09/09 06:48:16;;;;;;;35.53;20.08;;;;;;;19.99;81.35;101750.41;5036278;27;96830;-27
2023/09/09 06:50:44;;;;;;;37.42;20.33;;;;;;;20.13;80.89;101747.31;5035901;27;101012;-28
2023/09/09 06:53:09;;;;;;;42.55;19.95;;;;;;;20.25;80.42;101740.72;5036331;27;100488;-27
2023/09/09 06:55:35;;;;;;;40.83;20.80;;;;;;;20.42;79.76;101754.88;5054671;27;96487;-27
2023/09/09 06:58:01;;;;;;;44.13;22.42;;;;;;;20.52;80.01;101748.44;5054414;27;96830;-27
2023/09/09 07:00:27;;;;;;;43.75;23.10;;;;;;;20.64;80.15;101745.59;5035256;27;101735;-28
2023/09/09 07:02:52;;;;;;;45.13;22.98;;;;;;;20.82;79.45;101751.34;5054570;27;97249;-27
2023/09/09 07:05:19;;;;;;;37.42;20.85;;;;;;;20.96;78.70;101748.19;5055417;27;96600;-27
2023/09/09 07:07:44;;;;;;;46.85;24.00;;;;;;;21.10;79.42;101753.31;5057880;27;96776;-27
2023/09/09 07:10:10;;;;;;;48.55;23.85;;;;;;;21.22;78.57;101748.56;5057301;27;99213;-28
2023/09/09 07:12:35;;;;;;;45.85;23.30;;;;;;;21.36;78.63;101755.56;5057201;27;99114;-27
2023/09/09 07:15:01;;;;;;;42.13;22.73;;;;;;;21.54;78.12;101758.50;5056753;27;96687;-27
2023/09/09 07:17:26;;;;;;;45.33;25.02;;;;;;;21.68;77.56;101752.53;5056386;27;96827;-30
2023/09/09 07:19:51;;;;;;;47.40;22.88;;;;;;;21.77;76.81;101751.69;5059713;27;97423;-27
2023/09/09 07:22:17;;;;;;;42.00;22.58;;;;;;;21.88;77.28;101752.53;5077870;27;97291;-27
2023/09/09 07:24:42;;;;;;;43.30;23.33;;;;;;;22.02;77.01;101758.50;5077570;27;96720;-27
2023/09/09 07:27:07;;;;;;;50.33;23.85;;;;;;;22.21;77.42;101756.75;5078120;27;96753;-27
2023/09/09 07:29:33;;;;;;;42.58;22.10;;;;;;;22.35;75.71;101753.50;5077679;27;97929;-27
2023/09/09 07:31:58;;;;;;;43.70;22.17;;;;;;;22.50;76.30;101764.97;5077797;27;97687;-27
2023/09/09 07:34:24;;;;;;;39.83;22.42;;;;;;;22.64;75.91;101763.59;5078077;27;96488;-29
2023/09/09 07:36:50;;;;;;;45.47;23.10;;;;;;;22.71;75.09;101750.91;5059410;27;96573;-27
2023/09/09 07:39:16;;;;;;;46.00;23.17;;;;;;;22.90;75.46;101761.00;5059150;27;100713;-27
2023/09/09 07:41:41;;;;;;;39.85;20.85;;;;;;;23.00;74.61;101758.22;5077428;27;99756;-27
2023/09/09 07:44:07;;;;;;;36.55;19.58;;;;;;;23.05;74.99;101747.59;5077488;27;96544;-27
2023/09/09 07:46:32;;;;;;;33.75;18.50;;;;;;;23.24;74.93;101764.06;5077896;27;96583;-27
2023/09/09 07:48:57;;;;;;;42.35;20.35;;;;;;;23.40;74.24;101763.38;5077036;27;97928;-27
2023/09/09 07:51:23;;;;;;;31.85;16.80;;;;;;;23.53;73.23;101761.09;5077679;27;97196;-27
2023/09/09 07:53:48;;;;;;;33.38;17.75;;;;;;;23.66;73.13;101755.16;5077551;27;96680;-27
2023/09/09 07:56:14;;;;;;;27.17;15.65;;;;;;;23.83;72.83;101763.66;5077532;27;96716;-27
2023/09/09 07:58:39;;;;;;;27.27;15.18;;;;;;;23.89;72.71;101763.03;5077423;27;97855;-27
2023/09/09 08:01:07;;;;;;;35.33;15.77;;;;;;;24.06;72.11;101764.91;5077187;27;97794;-27
2023/09/09 08:03:34;;;;;;;33.47;16.50;;;;;;;24.18;72.01;101762.75;5058964;27;96500;-27
2023/09/09 08:06:06;;;;;;;25.75;14.75;;;;;;;24.34;71.19;101767.53;5059255;27;96825;-27
2023/09/09 08:08:32;;;;;;;25.55;13.80;;;;;;;24.41;70.99;101757.56;5077440;27;98011;-27
2023/09/09 08:10:57;;;;;;;23.63;13.32;;;;;;;24.57;70.06;101760.47;5058388;27;101069;-27
2023/09/09 08:13:24;;;;;;;25.13;13.80;;;;;;;24.68;70.01;101763.97;5076919;27;96517;-28
2023/09/09 08:15:50;;;;;;;24.33;13.27;;;;;;;24.75;69.72;101753.97;5042480;27;96991;-27
2023/09/09 08:18:15;;;;;;;27.70;12.93;;;;;;;24.87;69.42;101760.94;5055372;27;97648;-28
2023/09/09 08:20:41;;;;;;;21.88;11.52;;;;;;;25.02;68.78;101767.59;5056569;27;97348;-26
2023/09/09 08:23:08;;;;;;;19.52;10.73;;;;;;;25.13;68.53;101769.22;5038300;27;96865;-27
2023/09/09 08:25:33;;;;;;;21.23;10.57;;;;;;;25.23;66.33;101773.78;5038112;27;96893;-27
2023/09/09 08:28:01;;;;;;;18.48;9.65;;;;;;;25.27;67.07;101781.59;5056542;27;97930;-27
2023/09/09 08:30:27;;;;;;;19.27;10.27;;;;;;;25.31;66.71;101773.78;5038294;27;100877;-27
2023/09/09 08:32:53;;;;;;;20.45;10.43;;;;;;;25.33;65.60;101780.03;5037994;27;96790;-27
2023/09/09 08:35:18;;;;;;;18.88;10.20;;;;;;;25.46;66.07;101774.00;5056905;27;96694;-27
2023/09/09 08:37:44;;;;;;;20.60;10.60;;;;;;;25.54;66.26;101774.03;5056183;27;97388;-27
2023/09/09 08:40:10;;;;;;;16.40;10.20;;;;;;;25.63;65.36;101782.19;5056113;27;97619;-27
2023/09/09 08:42:46;;;;;;;22.92;10.10;;;;;;;25.76;64.66;101776.13;5036989;27;96754;-28
2023/09/09 08:45:24;;;;;;;18.50;11.00;;;;;;;25.83;62.49;101785.50;5038023;27;96767;-28
2023/09/09 08:47:50;;;;;;;17.20;9.90;;;;;;;25.93;63.40;101787.28;5037535;27;100850;-27
2023/09/09 08:50:17;;;;;;;16.27;9.70;;;;;;;26.04;63.52;101796.16;5055775;27;99106;-27
2023/09/09 08:52:45;;;;;;;20.70;11.15;;;;;;;26.22;63.06;101796.00;5037949;27;96848;-27
2023/09/09 08:55:10;;;;;;;17.58;10.10;;;;;;;26.31;63.67;101801.53;5038098;27;96775;-27
2023/09/09 08:57:36;;;;;;;20.88;9.45;;;;;;;26.28;63.13;101789.72;5055649;27;99493;-27
2023/09/09 09:00:05;;;;;;;16.13;10.63;;;;;;;26.45;63.27;101795.25;5055459;27;99139;-27
2023/09/09 09:02:33;;;;;;;25.33;14.02;;;;;;;26.48;62.79;101797.69;5037297;27;96706;-27
2023/09/09 09:04:59;;;;;;;21.55;12.85;;;;;;;26.61;63.03;101798.06;5037705;27;96899;-27
2023/09/09 09:07:27;;;;;;;20.60;11.90;;;;;;;26.72;63.02;101801.50;5055748;27;97625;-27
2023/09/09 09:09:54;;;;;;;20.23;11.88;;;;;;;26.77;62.03;101790.69;5037293;27;101324;-27
2023/09/09 09:12:21;;;;;;;20.10;10.80;;;;;;;26.92;61.69;101791.72;5055890;27;96551;-27
2023/09/09 09:14:47;;;;;;;19.70;11.07;;;;;;;26.98;62.27;101809.59;5037613;27;96829;-27
2023/09/09 09:17:15;;;;;;;22.58;11.68;;;;;;;27.05;61.47;101805.03;5037178;27;101441;-27
2023/09/09 09:19:41;;;;;;;18.67;10.68;;;;;;;27.18;61.15;101798.91;5055928;27;96879;-27
2023/09/09 09:22:07;;;;;;;18.95;10.30;;;;;;;27.28;61.55;101800.44;5055890;27;96450;-27
2023/09/09 09:24:42;;;;;;;20.83;11.98;;;;;;;27.36;61.05;101802.31;5037378;27;96935;-27
2023/09/09 09:27:14;;;;;;;21.25;11.07;;;;;;;27.47;60.17;101803.84;5036603;27;101174;-27
2023/09/09 09:29:50;;;;;;;20.80;11.77;;;;;;;27.45;59.29;101801.22;5036885;27;100882;-27
2023/09/09 09:32:16;;;;;;;19.25;10.32;;;;;;;27.48;60.61;101800.00;5037420;27;96671;-27
2023/09/09 09:34:42;;;;;;;17.73;10.25;;;;;;;27.57;60.81;101798.91;5037253;27;96897;-27
2023/09/09 09:37:11;;;;;;;19.55;9.68;;;;;;;27.74;60.36;101810.78;5055073;27;99519;-27
2023/09/09 09:39:38;;;;;;;17.42;10.70;;;;;;;27.79;60.71;101791.63;5036997;27;100870;-29
2023/09/09 09:42:03;;;;;;;18.67;10.02;;;;;;;27.93;60.60;101804.78;5054916;27;96723;-27
2023/09/09 09:44:29;;;;;;;15.80;9.38;;;;;;;28.15;59.71;101804.94;5037423;27;96836;-27
2023/09/09 09:47:03;;;;;;;18.50;9.88;;;;;;;28.20;58.26;101808.06;5036245;27;101269;-27
2023/09/09 09:49:40;;;;;;;15.45;9.48;;;;;;;28.28;58.46;101810.75;5036376;27;100788;-27
2023/09/09 09:52:07;;;;;;;15.75;9.55;;;;;;;28.43;58.78;101809.94;5037983;27;96775;-27
2023/09/09 09:54:34;;;;;;;15.57;8.90;;;;;;;28.47;58.07;101802.97;5055156;27;96885;-27
2023/09/09 09:57:02;;;;;;;20.20;10.73;;;;;;;28.49;57.76;101800.84;5036576;27;101105;-28
2023/09/09 09:59:35;;;;;;;14.48;8.90;;;;;;;28.46;57.38;101782.59;5036501;27;99014;-27
2023/09/09 10:02:03;;;;;;;14.50;9.00;;;;;;;28.66;57.52;101801.56;5036814;27;96709;-27
2023/09/09 10:04:40;;;;;;;12.63;8.48;;;;;;;28.78;56.38;101806.44;5036590;27;96820;-28
2023/09/09 10:07:11;;;;;;;14.57;7.55;;;;;;;28.78;55.86;101797.22;5036612;27;100899;-27
2023/09/09 10:09:44;;;;;;;13.15;6.57;;;;;;;28.93;56.80;101794.44;5037011;27;101154;-27
2023/09/09 10:12:30;;;;;;;12.35;6.63;;;;;;;28.97;53.73;101799.44;5036766;27;96633;-29
2023/09/09 10:14:57;;;;;;;13.82;7.82;;;;;;;29.01;55.83;101792.41;5036462;27;96777;-27
2023/09/09 10:17:23;;;;;;;13.05;7.10;;;;;;;29.12;55.80;101785.50;5035783;27;101248;-27
2023/09/09 10:19:53;;;;;;;14.07;7.47;;;;;;;29.28;55.44;101790.00;5036200;27;100818;-27
2023/09/09 10:22:20;;;;;;;12.32;7.38;;;;;;;29.45;55.20;101787.00;5036503;27;96566;-27
2023/09/09 10:24:46;;;;;;;11.10;6.32;;;;;;;29.64;55.10;101792.78;5054944;27;96878;-27
2023/09/09 10:27:12;;;;;;;10.38;6.45;;;;;;;29.77;54.87;101782.84;5054751;27;97511;-27
2023/09/09 10:29:38;;;;;;;11.55;6.10;;;;;;;29.81;54.22;101782.25;5054595;27;98033;-27
2023/09/09 10:32:05;;;;;;;11.20;6.00;;;;;;;29.95;53.66;101788.84;5054641;27;96634;-27
2023/09/09 10:34:33;;;;;;;8.90;5.85;;;;;;;29.97;51.41;101783.94;5036784;27;96867;-27
2023/09/09 10:37:00;;;;;;;10.77;6.05;;;;;;;29.98;53.24;101785.66;5036162;27;101133;-27
2023/09/09 10:39:26;;;;;;;9.07;5.57;;;;;;;30.00;53.02;101783.53;5036002;27;100740;-27
2023/09/09 10:41:53;;;;;;;9.75;5.68;;;;;;;29.93;52.23;101782.59;5038871;27;97001;-28
2023/09/09 10:44:18;;;;;;;10.13;5.63;;;;;;;30.09;52.22;101795.44;5039485;27;96846;-27
2023/09/09 10:46:44;;;;;;;9.38;5.20;;;;;;;30.13;52.62;101793.09;5057997;27;97956;-27
2023/09/09 10:49:15;;;;;;;8.57;5.30;;;;;;;30.22;51.03;101791.91;5057654;27;99159;-27
2023/09/09 10:51:51;;;;;;;8.70;5.18;;;;;;;30.11;52.02;101781.28;5058560;27;96552;-27
2023/09/09 10:54:22;;;;;;;8.30;5.68;;;;;;;30.03;51.51;101794.34;5058551;27;96770;-28
2023/09/09 10:56:53;;;;;;;11.38;6.75;;;;;;;30.19;51.57;101783.91;5057615;27;99472;-27
2023/09/09 10:59:19;;;;;;;9.88;5.97;;;;;;;30.22;51.55;101780.72;5058155;27;99331;-27
2023/09/09 11:01:47;;;;;;;7.72;5.35;;;;;;;30.42;51.65;101787.38;5039667;27;96589;-27
2023/09/09 11:04:20;;;;;;;8.60;5.50;;;;;;;30.47;50.47;101772.78;5039698;27;96852;-27
2023/09/09 11:07:13;;;;;;;14.63;6.55;;;;;;;30.43;49.72;101780.69;5038805;27;100978;-27